Terminal Aerodrome Forecast
Issued by NWS

Home | Current Version | Previous Version | Text Only | Print | Product List | Glossary On
Versions: 1 2 3 4 5 6 7 8 9 10 11 12 13 14 15 16 17 18 19 20 21 22 23 24 25 26 27 28 29 30 31 32 33 34 35 36 37 38 39 40 41 42 43 44 45 46 47 48 49 50
000
FTUS43 KMKX 242049 AAC
TAFENW
TAF AMD
KENW 242049Z 2421/2518 23008KT P6SM VCTS FEW017 BKN080CB
     FM242200 27014G24KT P6SM VCTS BKN080CB
      TEMPO 2422/2424 3SM TSRA OVC040CB
     FM250000 26013G21KT P6SM SCT080
     FM251000 26009KT P6SM FEW250
     FM251400 26011G19KT P6SM SKC=

USA.gov is the U.S. government's official web portal to all federal, state and local government web resources and services.